Time;durP1;ratioP1;P1;durP2;ratioP2;P2;SDS_P1;SDS_P2;PMS_P1;PMS_P2;Temp;Humidity;BMP_temperature;BMP_pressure;BME280_temperature;BME280_humidity;BME280_pressure;Samples;Min_cycle;Max_cycle;Signal;HPM_P1;HPM_P2
2023/06/02 00:02:41;;;;;;;4.50;2.60;;;19.60;75.50;;;;;;6312369;28;20056;-75
2023/06/02 00:05:44;;;;;;;5.40;2.80;;;19.40;76.40;;;;;;6323237;28;20482;-75
2023/06/02 00:08:48;;;;;;;7.85;2.72;;;19.20;76.70;;;;;;6322823;28;20044;-74
2023/06/02 00:11:49;;;;;;;5.28;2.70;;;19.10;77.50;;;;;;6324988;28;20054;-75
2023/06/02 00:14:52;;;;;;;7.40;2.53;;;19.00;78.00;;;;;;6299314;28;20045;-73
2023/06/02 00:17:54;;;;;;;5.05;2.75;;;19.10;77.60;;;;;;6299332;28;20088;-76
2023/06/02 00:20:58;;;;;;;5.78;2.47;;;19.10;77.40;;;;;;6298963;28;20063;-72
2023/06/02 00:24:01;;;;;;;4.75;2.67;;;19.10;77.30;;;;;;6299359;28;20076;-76
2023/06/02 00:27:03;;;;;;;6.60;3.00;;;19.10;77.60;;;;;;6298880;28;20053;-75
2023/06/02 00:30:07;;;;;;;6.70;2.90;;;19.10;78.10;;;;;;6299070;28;20056;-74
2023/06/02 00:33:08;;;;;;;;;;;19.10;78.20;;;;;;6299449;28;20044;-72
2023/06/02 00:36:10;;;;;;;6.47;3.00;;;19.10;78.00;;;;;;6298879;28;20293;-74
2023/06/02 00:39:13;;;;;;;7.20;2.92;;;19.00;78.60;;;;;;6298935;28;20044;-74
2023/06/02 00:42:16;;;;;;;6.28;3.00;;;19.00;78.40;;;;;;6298140;28;20058;-73
2023/06/02 00:45:18;;;;;;;5.80;3.08;;;18.90;78.70;;;;;;6298853;28;20041;-76
2023/06/02 00:48:20;;;;;;;5.47;2.90;;;18.90;78.50;;;;;;6298398;28;20057;-74
2023/06/02 00:51:22;;;;;;;6.32;2.65;;;18.80;78.90;;;;;;6298519;28;20049;-74
2023/06/02 00:54:27;;;;;;;5.25;2.88;;;18.80;79.40;;;;;;6298705;28;20520;-75
2023/06/02 00:57:33;;;;;;;7.18;3.10;;;18.70;79.10;;;;;;6298574;28;20468;-74
2023/06/02 01:00:40;;;;;;;7.30;3.03;;;18.50;79.70;;;;;;6298134;28;20074;-74
2023/06/02 01:03:44;;;;;;;6.05;2.92;;;18.40;80.00;;;;;;6298052;28;20052;-74
2023/06/02 01:06:48;;;;;;;;;;;18.20;80.70;;;;;;6298367;28;20044;-73
2023/06/02 01:09:55;;;;;;;5.43;3.00;;;18.10;81.20;;;;;;6297999;28;19929;-75
2023/06/02 01:12:57;;;;;;;5.55;2.80;;;18.10;81.20;;;;;;6297711;28;20510;-75
2023/06/02 01:15:59;;;;;;;6.28;3.05;;;18.00;81.70;;;;;;6307181;28;20051;-75
2023/06/02 01:19:02;;;;;;;5.47;3.10;;;18.10;81.90;;;;;;6307662;28;20041;-72
2023/06/02 01:22:08;;;;;;;6.70;3.27;;;18.10;81.60;;;;;;6308191;28;20048;-73
2023/06/02 01:25:22;;;;;;;5.57;2.97;;;18.10;81.70;;;;;;6297804;28;20330;-74
2023/06/02 01:28:24;;;;;;;7.35;2.78;;;18.10;81.80;;;;;;6297514;28;20048;-74
2023/06/02 01:31:32;;;;;;;5.95;3.33;;;18.10;82.00;;;;;;6297537;28;20261;-74
2023/06/02 01:34:39;;;;;;;6.47;2.97;;;18.10;82.10;;;;;;6297303;28;20040;-75
2023/06/02 01:37:48;;;;;;;5.20;2.80;;;18.00;82.00;;;;;;6297967;28;20045;-75
2023/06/02 01:40:53;;;;;;;4.47;2.75;;;18.00;82.10;;;;;;6297448;28;20052;-75
2023/06/02 01:43:57;;;;;;;5.10;2.95;;;17.90;82.70;;;;;;6297291;28;20049;-76
2023/06/02 01:46:59;;;;;;;9.27;3.03;;;17.80;82.70;;;;;;6297090;28;20110;-74
2023/06/02 01:50:01;;;;;;;5.97;3.13;;;17.80;82.70;;;;;;6295901;28;20051;-73
2023/06/02 01:53:06;;;;;;;5.40;3.03;;;17.70;83.10;;;;;;6296389;28;20048;-75
2023/06/02 01:56:09;;;;;;;7.53;3.22;;;17.70;83.00;;;;;;6297266;28;20051;-74
2023/06/02 01:59:11;;;;;;;7.68;3.00;;;17.70;83.30;;;;;;6297023;28;20344;-76
2023/06/02 02:02:13;;;;;;;6.45;3.10;;;17.70;83.00;;;;;;6297143;28;20051;-76
2023/06/02 02:05:15;;;;;;;6.13;3.13;;;17.70;83.00;;;;;;6297305;28;20071;-75
2023/06/02 02:08:17;;;;;;;5.78;3.00;;;17.70;83.30;;;;;;6307730;28;20060;-76
2023/06/02 02:11:21;;;;;;;5.90;3.20;;;17.60;83.10;;;;;;6309062;28;20051;-74
2023/06/02 02:14:24;;;;;;;7.45;3.40;;;17.50;83.40;;;;;;6309708;28;20060;-75
2023/06/02 02:17:25;;;;;;;6.38;3.40;;;17.50;83.60;;;;;;6303862;28;20505;-74
2023/06/02 02:20:28;;;;;;;4.90;2.88;;;17.40;83.90;;;;;;6296777;28;20057;-75
2023/06/02 02:23:30;;;;;;;6.18;3.15;;;17.40;85.20;;;;;;6297496;28;20466;-74
2023/06/02 02:26:33;;;;;;;5.35;3.00;;;17.30;84.20;;;;;;6297882;28;20055;-74
2023/06/02 02:29:36;;;;;;;;;;;17.20;84.70;;;;;;6297769;28;20056;-74
2023/06/02 02:32:43;;;;;;;6.95;3.40;;;17.20;84.90;;;;;;6296689;28;20475;-74
2023/06/02 02:35:45;;;;;;;6.50;3.53;;;17.10;85.60;;;;;;6296728;28;20048;-74
2023/06/02 02:38:47;;;;;;;8.43;3.22;;;17.20;85.00;;;;;;6298231;28;20102;-73
2023/06/02 02:41:50;;;;;;;7.10;3.45;;;17.20;85.10;;;;;;6297218;28;20273;-75
2023/06/02 02:44:52;;;;;;;6.45;3.13;;;17.10;85.00;;;;;;6297633;28;20059;-76
2023/06/02 02:47:54;;;;;;;5.97;2.80;;;17.00;85.40;;;;;;6297748;28;20552;-74
2023/06/02 02:50:56;;;;;;;5.07;2.95;;;17.00;85.10;;;;;;6296337;28;20045;-75
2023/06/02 02:53:58;;;;;;;5.65;3.20;;;17.00;85.00;;;;;;6296325;28;20425;-74
2023/06/02 02:57:01;;;;;;;8.13;3.20;;;17.00;85.20;;;;;;6296273;28;20056;-74
2023/06/02 03:00:07;;;;;;;5.85;3.13;;;16.80;85.60;;;;;;6296328;28;20053;-73
2023/06/02 03:03:09;;;;;;;5.13;2.88;;;16.80;85.70;;;;;;6297331;28;20048;-74
2023/06/02 03:06:18;;;;;;;6.53;3.30;;;16.80;85.90;;;;;;6300695;28;20126;-75
2023/06/02 03:09:22;;;;;;;5.60;3.20;;;16.80;86.10;;;;;;6301144;28;20044;-74
2023/06/02 03:12:26;;;;;;;8.30;3.63;;;16.80;85.60;;;;;;6300578;28;20077;-75
2023/06/02 03:15:28;;;;;;;5.57;2.97;;;16.80;85.80;;;;;;6300515;28;20505;-74
2023/06/02 03:18:30;;;;;;;6.03;3.45;;;16.70;85.90;;;;;;6300531;28;20052;-73
2023/06/02 03:21:33;;;;;;;7.25;3.30;;;16.60;85.90;;;;;;6300678;28;20482;-75
2023/06/02 03:24:35;;;;;;;6.43;3.33;;;16.50;86.10;;;;;;6300477;28;20048;-75
2023/06/02 03:27:38;;;;;;;7.05;3.40;;;16.50;86.30;;;;;;6300845;28;20053;-74
2023/06/02 03:30:40;;;;;;;5.57;3.25;;;16.50;86.10;;;;;;6300258;28;20406;-74
2023/06/02 03:33:42;;;;;;;4.90;2.92;;;16.50;86.20;;;;;;6300605;28;20048;-74
2023/06/02 03:36:43;;;;;;;6.15;3.13;;;16.40;86.30;;;;;;6300106;28;20486;-73
2023/06/02 03:39:45;;;;;;;6.18;3.10;;;16.40;86.60;;;;;;6300187;28;20044;-74
2023/06/02 03:42:48;;;;;;;7.68;3.60;;;16.30;87.00;;;;;;6299976;28;20059;-75
2023/06/02 03:45:50;;;;;;;6.10;3.33;;;16.30;86.90;;;;;;6299786;28;20048;-76
2023/06/02 03:48:52;;;;;;;5.47;3.08;;;16.30;86.90;;;;;;6299716;28;20494;-75
2023/06/02 03:51:54;;;;;;;7.15;3.90;;;16.30;87.10;;;;;;6299724;28;20048;-75
2023/06/02 03:54:56;;;;;;;8.23;3.35;;;16.30;87.10;;;;;;6305799;28;20066;-76
2023/06/02 03:57:59;;;;;;;6.15;3.35;;;16.30;87.30;;;;;;6313411;28;20048;-73
2023/06/02 04:01:02;;;;;;;6.65;3.45;;;16.20;87.50;;;;;;6314331;28;20474;-76
2023/06/02 04:04:04;;;;;;;6.13;3.50;;;16.20;87.50;;;;;;6304046;28;20052;-75
2023/06/02 04:07:06;;;;;;;9.32;4.00;;;16.20;87.90;;;;;;6299597;28;20090;-73
2023/06/02 04:10:10;;;;;;;5.50;3.42;;;16.30;88.30;;;;;;6299324;28;20122;-77
2023/06/02 04:13:13;;;;;;;8.20;3.10;;;16.20;88.30;;;;;;6299408;28;20051;-75
2023/06/02 04:16:15;;;;;;;5.85;3.70;;;16.20;88.50;;;;;;6298782;28;20048;-74
2023/06/02 04:19:16;;;;;;;6.45;3.35;;;16.30;88.50;;;;;;6299389;28;20052;-75
2023/06/02 04:22:18;;;;;;;6.57;3.47;;;16.20;88.60;;;;;;6299120;28;20048;-77
2023/06/02 04:25:20;;;;;;;7.28;3.63;;;16.20;89.40;;;;;;6299025;28;20049;-75
2023/06/02 04:28:23;;;;;;;5.70;3.40;;;16.30;89.40;;;;;;6299884;28;20045;-74
2023/06/02 04:31:39;;;;;;;6.22;3.60;;;16.30;89.20;;;;;;6299411;28;20051;-73
2023/06/02 04:34:41;;;;;;;6.85;3.83;;;16.30;89.50;;;;;;6299710;28;20044;-74
2023/06/02 04:37:45;;;;;;;6.40;3.88;;;16.30;89.10;;;;;;6299142;28;20045;-74
2023/06/02 04:40:47;;;;;;;7.57;3.53;;;16.20;89.60;;;;;;6299134;28;20044;-75
2023/06/02 04:43:50;;;;;;;6.05;3.50;;;16.20;89.40;;;;;;6298727;28;20059;-74
2023/06/02 04:46:52;;;;;;;7.88;4.07;;;16.20;89.40;;;;;;6298832;28;20050;-76
2023/06/02 04:49:54;;;;;;;7.50;4.28;;;16.20;90.00;;;;;;6298795;28;20072;-75
2023/06/02 04:52:56;;;;;;;7.35;4.20;;;16.20;90.30;;;;;;6299105;28;20048;-75
2023/06/02 04:55:58;;;;;;;8.40;4.35;;;16.30;90.40;;;;;;6305870;28;20058;-76
2023/06/02 04:59:01;;;;;;;8.30;4.10;;;16.30;90.30;;;;;;6299719;28;20052;-76
2023/06/02 05:02:04;;;;;;;7.45;4.28;;;16.30;90.00;;;;;;6300054;28;20056;-74
2023/06/02 05:05:07;;;;;;;6.70;4.07;;;16.30;88.80;;;;;;6298725;28;20056;-73
2023/06/02 05:08:09;;;;;;;8.90;4.55;;;16.40;88.80;;;;;;6298784;28;20049;-76
2023/06/02 05:11:11;;;;;;;7.45;4.57;;;16.50;88.20;;;;;;6298672;28;20048;-75
2023/06/02 05:14:15;;;;;;;9.90;4.63;;;16.50;87.30;;;;;;6298316;28;20052;-73
2023/06/02 05:17:26;;;;;;;8.73;4.97;;;16.50;87.10;;;;;;6298084;28;20056;-75
2023/06/02 05:20:28;;;;;;;10.07;5.43;;;16.60;87.20;;;;;;6298103;28;20071;-74
2023/06/02 05:23:30;;;;;;;7.68;4.55;;;16.50;87.70;;;;;;6297896;28;20045;-75
2023/06/02 05:26:32;;;;;;;9.10;4.88;;;16.60;88.10;;;;;;6297588;28;20483;-73
2023/06/02 05:29:35;;;;;;;8.70;5.03;;;16.60;88.00;;;;;;6309044;28;20044;-74
2023/06/02 05:32:37;;;;;;;13.75;5.60;;;16.60;88.30;;;;;;6323608;28;20589;-74
2023/06/02 05:35:39;;;;;;;10.25;5.50;;;16.60;87.70;;;;;;6322867;28;20058;-74
2023/06/02 05:38:42;;;;;;;10.32;6.00;;;16.60;87.80;;;;;;6323043;28;20181;-74
2023/06/02 05:41:44;;;;;;;11.10;5.50;;;16.60;88.30;;;;;;6323080;28;20055;-74
2023/06/02 05:44:47;;;;;;;11.90;5.53;;;16.70;88.50;;;;;;6323391;28;20052;-76
2023/06/02 05:47:49;;;;;;;10.43;5.68;;;16.70;88.40;;;;;;6322590;28;20109;-75
2023/06/02 05:50:51;;;;;;;13.60;5.40;;;16.80;88.40;;;;;;6322751;28;20036;-73
2023/06/02 05:53:53;;;;;;;12.63;5.70;;;16.90;88.60;;;;;;6322672;28;20052;-76
2023/06/02 05:56:55;;;;;;;12.98;5.63;;;16.90;87.50;;;;;;6322493;28;20055;-76
2023/06/02 05:59:58;;;;;;;11.13;6.10;;;16.90;87.60;;;;;;6323104;28;20044;-72
2023/06/02 06:03:00;;;;;;;10.95;6.38;;;16.80;87.00;;;;;;6322713;28;20047;-72
2023/06/02 06:06:02;;;;;;;11.23;5.82;;;16.90;87.20;;;;;;6323149;28;20051;-74
2023/06/02 06:09:05;;;;;;;13.55;5.97;;;16.80;88.00;;;;;;6322824;28;20098;-74
2023/06/02 06:12:08;;;;;;;14.57;6.55;;;16.70;89.20;;;;;;6322770;28;20055;-74
2023/06/02 06:15:12;;;;;;;11.88;6.28;;;16.60;89.40;;;;;;6322593;28;20044;-74
2023/06/02 06:18:14;;;;;;;11.95;6.60;;;16.80;88.30;;;;;;6323058;28;20044;-74
2023/06/02 06:21:15;;;;;;;10.82;6.25;;;16.80;87.10;;;;;;6329541;28;20052;-75
2023/06/02 06:24:17;;;;;;;13.38;6.35;;;16.80;87.60;;;;;;6344795;28;20087;-77
2023/06/02 06:27:19;;;;;;;12.75;6.35;;;17.00;87.50;;;;;;6344912;28;20041;-75
2023/06/02 06:30:23;;;;;;;11.88;6.72;;;17.00;86.10;;;;;;6345438;28;20044;-77
2023/06/02 06:33:25;;;;;;;13.65;7.15;;;17.10;86.70;;;;;;6332181;28;20127;-76
2023/06/02 06:36:26;;;;;;;12.25;6.88;;;17.10;86.20;;;;;;6322926;28;20078;-76
2023/06/02 06:39:28;;;;;;;13.77;7.13;;;17.20;85.70;;;;;;6327980;28;20044;-76
2023/06/02 06:42:31;;;;;;;11.38;6.75;;;16.90;86.80;;;;;;6328511;28;20048;-75
2023/06/02 06:45:34;;;;;;;11.98;6.65;;;17.00;86.90;;;;;;6328320;28;20079;-73
2023/06/02 06:48:36;;;;;;;11.38;6.57;;;17.10;86.60;;;;;;6328127;28;20052;-76
2023/06/02 06:51:38;;;;;;;11.82;7.05;;;17.20;85.70;;;;;;6329739;28;20513;-73
2023/06/02 06:54:39;;;;;;;11.32;6.75;;;17.20;86.20;;;;;;6326941;28;20048;-74
2023/06/02 06:57:41;;;;;;;12.65;6.97;;;17.40;85.60;;;;;;6332823;28;20040;-74
2023/06/02 07:00:48;;;;;;;11.15;6.85;;;17.40;85.30;;;;;;6340334;28;20051;-74
2023/06/02 07:03:50;;;;;;;13.25;7.10;;;17.50;85.40;;;;;;6336717;28;20177;-78
2023/06/02 07:06:51;;;;;;;11.55;6.60;;;17.30;86.50;;;;;;6341342;28;20107;-75
2023/06/02 07:09:54;;;;;;;12.93;7.15;;;17.40;86.40;;;;;;6339062;28;20071;-75
2023/06/02 07:12:56;;;;;;;11.98;6.68;;;17.30;87.30;;;;;;6340334;28;20048;-75
2023/06/02 07:15:59;;;;;;;13.90;6.72;;;17.50;87.00;;;;;;6329289;28;20048;-75
2023/06/02 07:19:01;;;;;;;14.48;7.82;;;17.60;85.60;;;;;;6327281;28;20044;-76
2023/06/02 07:22:02;;;;;;;13.02;7.10;;;17.60;85.30;;;;;;6326429;28;20044;-75
2023/06/02 07:25:06;;;;;;;10.63;6.45;;;17.50;85.70;;;;;;6327176;28;20044;-74
2023/06/02 07:28:07;;;;;;;12.15;7.10;;;17.40;86.60;;;;;;6326829;28;20479;-74
2023/06/02 07:31:11;;;;;;;14.23;7.82;;;17.70;85.50;;;;;;6326605;28;20058;-75
2023/06/02 07:34:12;;;;;;;13.13;7.00;;;17.80;84.70;;;;;;6327278;28;20055;-76
2023/06/02 07:37:15;;;;;;;10.60;7.28;;;17.70;85.60;;;;;;6326767;28;20056;-76
2023/06/02 07:40:17;;;;;;;12.00;7.05;;;17.80;85.10;;;;;;6325930;28;20409;-76
2023/06/02 07:43:19;;;;;;;11.48;7.30;;;18.00;84.80;;;;;;6326055;28;20050;-73
2023/06/02 07:46:22;;;;;;;11.93;7.70;;;18.10;85.30;;;;;;6326322;28;20055;-74
2023/06/02 07:49:24;;;;;;;13.35;7.18;;;18.00;84.70;;;;;;6325021;28;20048;-74
2023/06/02 07:52:25;;;;;;;12.63;7.28;;;17.80;85.40;;;;;;6326149;28;20052;-74
2023/06/02 07:55:27;;;;;;;11.10;7.10;;;17.90;85.30;;;;;;6325634;28;20401;-75
2023/06/02 07:58:29;;;;;;;10.85;7.20;;;18.00;84.60;;;;;;6326494;28;20040;-76
2023/06/02 08:01:33;;;;;;;15.95;7.65;;;17.90;85.00;;;;;;6329332;28;20052;-73
2023/06/02 08:04:35;;;;;;;11.85;7.45;;;18.10;84.70;;;;;;6326339;28;20383;-74
2023/06/02 08:07:37;;;;;;;11.38;7.45;;;18.10;84.80;;;;;;6325255;28;20501;-75
2023/06/02 08:10:38;;;;;;;13.35;7.65;;;18.20;85.50;;;;;;6325122;28;20044;-75
2023/06/02 08:13:40;;;;;;;13.70;7.60;;;18.10;84.30;;;;;;6325124;28;20055;-75
2023/06/02 08:16:43;;;;;;;12.95;7.78;;;18.00;85.40;;;;;;6324908;28;20055;-75
2023/06/02 08:19:45;;;;;;;13.35;7.50;;;18.20;85.10;;;;;;6324906;28;20402;-76
2023/06/02 08:22:47;;;;;;;11.93;7.35;;;18.30;86.60;;;;;;6325186;28;20052;-75
2023/06/02 08:25:50;;;;;;;11.82;8.48;;;18.30;86.10;;;;;;6324986;28;20089;-73
2023/06/02 08:28:53;;;;;;;12.63;8.00;;;18.40;85.00;;;;;;6325017;28;20051;-75
2023/06/02 08:31:57;;;;;;;13.18;6.70;;;18.50;85.40;;;;;;6324914;28;20052;-75
2023/06/02 08:35:01;;;;;;;11.73;7.70;;;18.50;85.60;;;;;;6324470;28;20048;-76
2023/06/02 08:38:03;;;;;;;14.93;8.00;;;18.70;85.20;;;;;;6324262;28;20052;-74
2023/06/02 08:41:10;;;;;;;12.82;7.90;;;18.70;84.70;;;;;;6324374;28;20464;-74
2023/06/02 08:44:12;;;;;;;13.73;7.40;;;18.70;84.10;;;;;;6325187;28;20056;-73
2023/06/02 08:47:17;;;;;;;12.57;7.25;;;18.60;83.80;;;;;;6333977;28;20066;-74
2023/06/02 08:50:24;;;;;;;11.05;7.22;;;18.80;84.60;;;;;;6329463;28;20489;-75
2023/06/02 08:53:26;;;;;;;14.65;7.60;;;18.70;83.20;;;;;;6324357;28;20481;-74
2023/06/02 08:56:28;;;;;;;14.00;7.68;;;18.70;84.10;;;;;;6324551;28;20051;-73
2023/06/02 08:59:30;;;;;;;12.90;7.22;;;18.80;83.60;;;;;;6324384;28;20521;-76
2023/06/02 09:02:33;;;;;;;12.23;7.55;;;19.00;83.70;;;;;;6324383;28;20055;-75
2023/06/02 09:05:35;;;;;;;12.25;7.22;;;18.90;83.60;;;;;;6324075;28;20052;-75
2023/06/02 09:08:53;;;;;;;13.05;7.63;;;19.10;83.00;;;;;;6324001;28;20063;-75
2023/06/02 09:11:59;;;;;;;12.48;7.28;;;19.10;83.30;;;;;;6324027;28;20109;-74
2023/06/02 09:15:09;;;;;;;12.77;7.72;;;19.00;84.60;;;;;;6323894;28;20156;-78
2023/06/02 09:18:15;;;;;;;12.50;7.63;;;19.10;84.90;;;;;;6323860;28;20133;-74
2023/06/02 09:21:27;;;;;;;12.52;7.65;;;19.30;83.00;;;;;;6323783;28;20047;-74
2023/06/02 09:24:32;;;;;;;13.27;7.28;;;19.40;82.20;;;;;;6323504;28;20044;-73
2023/06/02 09:27:34;;;;;;;13.75;7.00;;;19.40;81.60;;;;;;6323584;28;20051;-75
2023/06/02 09:30:37;;;;;;;10.85;6.70;;;19.50;80.80;;;;;;6323107;28;20056;-74
2023/06/02 09:33:40;;;;;;;9.63;6.43;;;19.50;80.80;;;;;;6328527;28;20044;-74
2023/06/02 09:36:42;;;;;;;13.98;7.03;;;19.60;81.30;;;;;;6337091;28;20048;-78
2023/06/02 09:39:48;;;;;;;12.80;7.63;;;19.70;81.00;;;;;;6340675;28;20112;-74
2023/06/02 09:42:50;;;;;;;12.63;7.13;;;19.70;80.70;;;;;;6339907;28;20576;-75
2023/06/02 09:46:03;;;;;;;13.02;7.65;;;19.70;81.30;;;;;;6327926;28;20063;-74
2023/06/02 09:49:07;;;;;;;13.07;7.45;;;19.70;80.10;;;;;;6322641;28;20135;-75
2023/06/02 09:52:14;;;;;;;14.05;8.05;;;19.70;80.80;;;;;;6322927;28;20052;-74
2023/06/02 09:55:16;;;;;;;12.50;7.50;;;19.80;80.70;;;;;;6323324;28;20546;-74
2023/06/02 09:58:19;;;;;;;12.50;7.10;;;19.80;80.90;;;;;;6322558;28;20132;-74
2023/06/02 10:01:21;;;;;;;11.23;7.50;;;19.90;81.60;;;;;;6322866;28;20040;-75
2023/06/02 10:04:24;;;;;;;12.70;7.15;;;19.80;80.20;;;;;;6323537;28;20082;-76
2023/06/02 10:07:40;;;;;;;14.20;7.03;;;19.80;80.00;;;;;;6325854;28;20047;-75
2023/06/02 10:10:57;;;;;;;10.05;7.20;;;19.90;80.40;;;;;;6323097;28;20044;-73
2023/06/02 10:14:18;;;;;;;10.27;6.13;;;20.00;79.70;;;;;;6322867;28;20051;-74
2023/06/02 10:17:31;;;;;;;11.95;6.18;;;20.00;80.10;;;;;;6322870;28;20453;-74
2023/06/02 10:20:38;;;;;;;;;;;20.10;79.10;;;;;;6323159;28;20047;-72
2023/06/02 10:23:50;;;;;;;11.45;6.88;;;20.20;79.00;;;;;;6323799;28;19930;-75
2023/06/02 10:27:08;;;;;;;15.27;9.98;;;20.20;78.50;;;;;;6328328;28;20052;-74
2023/06/02 10:30:10;;;;;;;12.65;7.15;;;20.20;79.40;;;;;;6324848;28;20058;-74
2023/06/02 10:33:12;;;;;;;11.25;6.85;;;20.30;77.30;;;;;;6322802;28;20041;-73
2023/06/02 10:36:17;;;;;;;10.85;6.50;;;20.20;77.60;;;;;;6322633;28;20044;-74
2023/06/02 10:39:48;;;;;;;13.15;6.60;;;20.30;78.40;;;;;;6322676;28;20506;-75
2023/06/02 10:43:12;;;;;;;10.13;6.40;;;20.40;78.30;;;;;;6322369;28;20050;-75
2023/06/02 10:46:20;;;;;;;10.90;6.55;;;20.40;76.60;;;;;;6322414;28;20044;-75
2023/06/02 10:49:53;;;;;;;10.13;6.10;;;20.60;76.90;;;;;;6322605;28;20513;-74
2023/06/02 10:53:12;;;;;;;9.77;5.97;;;20.70;75.90;;;;;;6322150;28;20071;-74
2023/06/02 10:56:40;;;;;;;8.77;5.85;;;20.80;78.00;;;;;;6322662;28;20497;-74
2023/06/02 10:59:42;;;;;;;9.63;5.75;;;20.70;76.40;;;;;;6322205;28;20048;-74
2023/06/02 11:02:44;;;;;;;9.43;5.95;;;20.80;76.70;;;;;;6322022;28;20451;-75
2023/06/02 11:05:49;;;;;;;11.77;6.18;;;20.80;76.30;;;;;;6322161;28;20052;-73
2023/06/02 11:08:54;;;;;;;10.25;6.00;;;20.90;77.90;;;;;;6322075;28;20528;-74
2023/06/02 11:11:56;;;;;;;8.43;5.82;;;20.90;78.10;;;;;;6322902;28;20529;-75
2023/06/02 11:15:18;;;;;;;8.50;5.97;;;21.00;75.60;;;;;;6322185;28;20044;-74
2023/06/02 11:18:40;;;;;;;11.30;5.60;;;21.10;76.00;;;;;;6321814;28;20078;-74
2023/06/02 11:21:43;;;;;;;;;;;21.20;73.50;;;;;;6322088;28;20048;-74
2023/06/02 11:24:47;;;;;;;8.55;5.70;;;21.10;72.90;;;;;;6322393;28;20069;-76
2023/06/02 11:27:50;;;;;;;9.45;5.75;;;21.20;75.00;;;;;;6326042;28;20048;-76
2023/06/02 11:31:07;;;;;;;11.38;5.85;;;21.30;74.10;;;;;;6326393;28;20567;-75
2023/06/02 11:34:16;;;;;;;9.27;6.28;;;21.30;74.30;;;;;;6326177;28;20125;-74
2023/06/02 11:37:20;;;;;;;8.63;5.05;;;21.30;72.60;;;;;;6324633;28;20204;-74
2023/06/02 11:40:28;;;;;;;9.73;5.15;;;21.40;74.00;;;;;;6326432;28;20051;-75
2023/06/02 11:43:30;;;;;;;9.15;5.50;;;21.60;74.00;;;;;;6326246;28;20055;-74
2023/06/02 11:46:32;;;;;;;9.65;5.53;;;21.70;73.80;;;;;;6325884;28;20052;-75
2023/06/02 11:49:38;;;;;;;8.43;5.57;;;21.90;72.50;;;;;;6330161;28;20040;-75
2023/06/02 11:52:40;;;;;;;7.85;5.43;;;21.90;71.30;;;;;;6327561;28;20055;-74
2023/06/02 11:55:44;;;;;;;7.95;5.55;;;22.00;70.70;;;;;;6326158;28;20040;-75
2023/06/02 11:58:48;;;;;;;9.35;5.43;;;21.90;71.40;;;;;;6325432;28;20058;-75
2023/06/02 12:01:50;;;;;;;9.30;5.30;;;22.10;71.90;;;;;;6325893;28;20052;-74
2023/06/02 12:04:51;;;;;;;7.40;5.15;;;22.20;71.40;;;;;;6328165;28;20044;-73
2023/06/02 12:07:53;;;;;;;8.45;5.00;;;22.20;70.50;;;;;;6327980;28;20129;-74
2023/06/02 12:10:57;;;;;;;8.52;5.20;;;22.30;70.70;;;;;;6331316;28;20058;-75
2023/06/02 12:14:00;;;;;;;;;;;22.50;69.40;;;;;;6331455;28;20131;-73
2023/06/02 12:17:05;;;;;;;8.40;4.90;;;22.60;70.70;;;;;;6325490;28;19920;-74
2023/06/02 12:20:08;;;;;;;9.23;5.00;;;22.70;69.70;;;;;;6325279;28;20055;-75
2023/06/02 12:23:11;;;;;;;7.05;5.03;;;22.80;69.10;;;;;;6325167;28;20056;-73
2023/06/02 12:26:17;;;;;;;9.13;5.68;;;22.70;68.00;;;;;;6324935;28;20059;-73
2023/06/02 12:29:19;;;;;;;8.40;5.00;;;22.90;67.80;;;;;;6331994;28;20055;-75
2023/06/02 12:32:28;;;;;;;7.53;4.85;;;23.00;68.40;;;;;;6336562;28;20044;-76
2023/06/02 12:35:29;;;;;;;7.72;4.82;;;23.20;68.00;;;;;;6338474;28;20055;-75
2023/06/02 12:38:31;;;;;;;7.20;4.78;;;23.20;66.60;;;;;;6343539;28;20058;-75
2023/06/02 12:41:34;;;;;;;9.25;4.95;;;23.30;66.50;;;;;;6344547;28;20055;-73
2023/06/02 12:44:36;;;;;;;9.15;4.35;;;23.40;66.50;;;;;;6351080;28;20091;-76
2023/06/02 12:47:39;;;;;;;6.78;4.60;;;23.50;65.80;;;;;;6342225;28;20056;-73
2023/06/02 12:50:41;;;;;;;7.75;4.60;;;23.70;67.10;;;;;;6339066;28;20431;-76
2023/06/02 12:53:43;;;;;;;6.40;4.53;;;23.80;66.90;;;;;;6338277;28;20044;-76
2023/06/02 12:56:46;;;;;;;7.65;4.85;;;24.10;65.10;;;;;;6333278;28;20051;-76
2023/06/02 12:59:48;;;;;;;;;;;24.20;63.30;;;;;;6334169;28;20044;-75
2023/06/02 13:02:50;;;;;;;10.90;5.10;;;24.20;63.20;;;;;;6334355;28;19924;-75
2023/06/02 13:06:00;;;;;;;7.78;4.88;;;24.30;64.30;;;;;;6333639;28;20058;-75
2023/06/02 13:09:03;;;;;;;9.88;4.93;;;24.40;62.30;;;;;;6341090;28;20043;-73
2023/06/02 13:12:07;;;;;;;6.43;4.60;;;24.40;63.20;;;;;;6338720;28;20048;-75
2023/06/02 13:15:10;;;;;;;9.77;4.78;;;24.80;63.30;;;;;;6340827;28;20296;-75
2023/06/02 13:18:12;;;;;;;;;;;24.90;63.00;;;;;;6341800;28;20044;-75
2023/06/02 13:21:14;;;;;;;7.38;4.43;;;25.10;60.90;;;;;;6338822;28;19926;-76
2023/06/02 13:24:16;;;;;;;5.83;4.30;;;25.30;58.20;;;;;;6336924;28;20050;-75
2023/06/02 13:27:20;;;;;;;6.43;4.10;;;25.30;57.60;;;;;;6333436;28;20310;-75
2023/06/02 13:30:23;;;;;;;6.63;4.18;;;25.30;58.80;;;;;;6328332;28;20474;-75
2023/06/02 13:33:24;;;;;;;8.43;4.57;;;25.60;58.20;;;;;;6325589;28;20044;-76
2023/06/02 13:36:26;;;;;;;10.68;4.60;;;25.70;58.40;;;;;;6327752;28;20044;-74
2023/06/02 13:39:28;;;;;;;6.65;4.43;;;25.70;57.80;;;;;;6326741;28;20048;-74
2023/06/02 13:42:31;;;;;;;7.60;3.97;;;25.80;58.40;;;;;;6327086;28;20055;-74
2023/06/02 13:45:33;;;;;;;8.75;4.13;;;25.80;58.60;;;;;;6326564;28;20425;-73
2023/06/02 13:48:36;;;;;;;7.28;4.13;;;25.90;56.10;;;;;;6325386;28;20055;-72
2023/06/02 13:51:38;;;;;;;;;;;26.00;56.80;;;;;;6326462;28;20051;-74
2023/06/02 13:54:40;;;;;;;8.68;4.40;;;26.20;56.60;;;;;;6325591;28;19924;-75
2023/06/02 13:57:43;;;;;;;7.60;4.60;;;26.40;56.00;;;;;;6325848;28;20048;-74
2023/06/02 14:00:47;;;;;;;7.20;4.05;;;26.40;54.70;;;;;;6325119;28;20048;-74
2023/06/02 14:03:49;;;;;;;8.77;3.97;;;26.50;56.10;;;;;;6326181;28;20048;-75
2023/06/02 14:06:51;;;;;;;6.57;3.72;;;26.50;55.70;;;;;;6325704;28;20402;-74
2023/06/02 14:09:53;;;;;;;6.43;3.90;;;26.60;54.30;;;;;;6325180;28;20044;-74
2023/06/02 14:12:56;;;;;;;6.15;4.03;;;26.90;53.60;;;;;;6326093;28;20055;-76
2023/06/02 14:15:58;;;;;;;5.88;3.70;;;27.10;52.70;;;;;;6326829;28;20059;-74
2023/06/02 14:19:00;;;;;;;7.20;3.95;;;27.10;54.20;;;;;;6330925;28;20054;-73
2023/06/02 14:22:02;;;;;;;7.43;3.58;;;27.10;52.80;;;;;;6327239;28;20060;-73
2023/06/02 14:25:05;;;;;;;5.97;3.88;;;27.20;52.50;;;;;;6326551;28;20048;-73
2023/06/02 14:28:08;;;;;;;6.35;3.60;;;27.30;53.30;;;;;;6326166;28;20059;-75
2023/06/02 14:31:10;;;;;;;6.60;3.97;;;27.30;52.60;;;;;;6326013;28;20052;-75
2023/06/02 14:34:12;;;;;;;7.07;3.90;;;27.10;52.50;;;;;;6325691;28;20051;-76
2023/06/02 14:37:14;;;;;;;7.30;3.80;;;27.30;52.50;;;;;;6325042;28;20406;-74
2023/06/02 14:40:17;;;;;;;5.53;3.55;;;27.50;51.70;;;;;;6324802;28;20076;-73
2023/06/02 14:43:20;;;;;;;;;;;27.50;53.80;;;;;;6324455;28;20055;-75
2023/06/02 14:46:23;;;;;;;7.32;3.65;;;27.50;53.50;;;;;;6324918;28;20286;-75
2023/06/02 14:49:25;;;;;;;7.40;3.80;;;28.00;52.70;;;;;;6322990;28;20052;-74
2023/06/02 14:52:27;;;;;;;5.60;3.47;;;28.20;51.80;;;;;;6324607;28;20051;-73
2023/06/02 14:55:35;;;;;;;6.43;3.87;;;28.20;51.80;;;;;;6324622;28;20314;-73
2023/06/02 14:58:40;;;;;;;6.63;3.72;;;28.50;52.30;;;;;;6324539;28;20511;-74
2023/06/02 15:01:42;;;;;;;6.93;3.70;;;28.40;51.10;;;;;;6329087;28;20405;-74
2023/06/02 15:04:44;;;;;;;6.87;3.33;;;28.20;51.00;;;;;;6328098;28;20070;-75
2023/06/02 15:07:49;;;;;;;7.43;4.13;;;28.50;50.80;;;;;;6328062;28;20489;-76
2023/06/02 15:10:51;;;;;;;7.95;3.67;;;28.50;51.20;;;;;;6328875;28;20044;-75
2023/06/02 15:13:55;;;;;;;8.27;3.90;;;28.70;51.50;;;;;;6329214;28;20051;-75
2023/06/02 15:16:57;;;;;;;7.57;3.70;;;28.70;50.30;;;;;;6329217;28;20052;-77
2023/06/02 15:19:58;;;;;;;5.75;3.40;;;29.20;50.50;;;;;;6328647;28;20052;-74
2023/06/02 15:23:00;;;;;;;6.45;3.33;;;29.20;50.50;;;;;;6328308;28;20421;-74
2023/06/02 15:26:02;;;;;;;9.50;3.85;;;28.90;50.80;;;;;;6328577;28;20048;-74
2023/06/02 15:29:05;;;;;;;6.35;3.42;;;29.20;51.10;;;;;;6329411;28;20122;-74
2023/06/02 15:32:09;;;;;;;6.30;3.60;;;29.70;50.10;;;;;;6329259;28;20075;-76
2023/06/02 15:35:10;;;;;;;6.30;3.70;;;29.50;49.90;;;;;;6329871;28;20052;-75
2023/06/02 15:38:12;;;;;;;8.83;4.00;;;29.70;49.40;;;;;;6329608;28;20067;-75
2023/06/02 15:41:15;;;;;;;5.35;3.70;;;29.70;50.10;;;;;;6328660;28;20044;-75
2023/06/02 15:44:18;;;;;;;5.88;3.45;;;29.90;49.60;;;;;;6328029;28;20188;-77
2023/06/02 15:47:20;;;;;;;6.35;3.47;;;29.70;49.60;;;;;;6328055;28;20413;-75
2023/06/02 15:50:22;;;;;;;7.13;3.53;;;30.20;49.30;;;;;;6328460;28;20123;-74
2023/06/02 15:53:24;;;;;;;9.13;3.70;;;29.90;49.70;;;;;;6328766;28;20059;-74
2023/06/02 15:56:27;;;;;;;6.15;3.53;;;30.00;49.00;;;;;;6334965;28;20302;-75